sensor_id;sensor_type;location;lat;lon;timestamp;P1;durP1;ratioP1;P2;durP2;ratioP2
20802;SDS011;10562;-33.856;151.182;2022-08-16T00:02:09;3.25;;;0.40;;
20802;SDS011;10562;-33.856;151.182;2022-08-16T00:04:40;0.40;;;0.40;;
20802;SDS011;10562;-33.856;151.182;2022-08-16T00:07:11;0.88;;;0.35;;
20802;SDS011;10562;-33.856;151.182;2022-08-16T00:09:42;2.15;;;0.40;;
20802;SDS011;10562;-33.856;151.182;2022-08-16T00:12:17;0.77;;;0.35;;
20802;SDS011;10562;-33.856;151.182;2022-08-16T00:14:48;0.50;;;0.40;;
20802;SDS011;10562;-33.856;151.182;2022-08-16T00:17:18;0.45;;;0.30;;
20802;SDS011;10562;-33.856;151.182;2022-08-16T00:19:49;0.82;;;0.40;;
20802;SDS011;10562;-33.856;151.182;2022-08-16T00:22:21;0.52;;;0.40;;
20802;SDS011;10562;-33.856;151.182;2022-08-16T00:24:52;1.08;;;0.50;;
20802;SDS011;10562;-33.856;151.182;2022-08-16T00:27:25;0.50;;;0.40;;
20802;SDS011;10562;-33.856;151.182;2022-08-16T00:29:56;2.20;;;0.57;;
20802;SDS011;10562;-33.856;151.182;2022-08-16T00:32:27;1.48;;;0.70;;
20802;SDS011;10562;-33.856;151.182;2022-08-16T00:34:58;1.33;;;0.50;;
20802;SDS011;10562;-33.856;151.182;2022-08-16T00:37:29;2.92;;;0.75;;
20802;SDS011;10562;-33.856;151.182;2022-08-16T00:40:03;1.88;;;0.80;;
20802;SDS011;10562;-33.856;151.182;2022-08-16T00:42:37;0.90;;;0.60;;
20802;SDS011;10562;-33.856;151.182;2022-08-16T00:45:09;1.83;;;0.80;;
20802;SDS011;10562;-33.856;151.182;2022-08-16T00:47:51;2.03;;;0.50;;
20802;SDS011;10562;-33.856;151.182;2022-08-16T00:50:24;0.85;;;0.50;;
20802;SDS011;10562;-33.856;151.182;2022-08-16T00:52:59;3.03;;;0.63;;
20802;SDS011;10562;-33.856;151.182;2022-08-16T00:55:34;2.33;;;0.50;;
20802;SDS011;10562;-33.856;151.182;2022-08-16T00:58:09;2.78;;;0.70;;
20802;SDS011;10562;-33.856;151.182;2022-08-16T01:00:41;1.52;;;0.70;;
20802;SDS011;10562;-33.856;151.182;2022-08-16T01:03:14;1.30;;;0.60;;
20802;SDS011;10562;-33.856;151.182;2022-08-16T01:05:47;2.17;;;0.60;;
20802;SDS011;10562;-33.856;151.182;2022-08-16T01:08:19;1.40;;;0.70;;
20802;SDS011;10562;-33.856;151.182;2022-08-16T01:10:51;1.40;;;0.93;;
20802;SDS011;10562;-33.856;151.182;2022-08-16T01:13:25;3.42;;;0.60;;
20802;SDS011;10562;-33.856;151.182;2022-08-16T01:15:58;0.88;;;0.68;;
20802;SDS011;10562;-33.856;151.182;2022-08-16T01:18:31;0.38;;;0.38;;
20802;SDS011;10562;-33.856;151.182;2022-08-16T01:21:10;1.30;;;0.70;;
20802;SDS011;10562;-33.856;151.182;2022-08-16T01:23:53;0.98;;;0.50;;
20802;SDS011;10562;-33.856;151.182;2022-08-16T01:26:33;0.75;;;0.30;;
20802;SDS011;10562;-33.856;151.182;2022-08-16T01:29:08;0.85;;;0.50;;
20802;SDS011;10562;-33.856;151.182;2022-08-16T01:31:42;0.52;;;0.30;;
20802;SDS011;10562;-33.856;151.182;2022-08-16T01:34:13;0.47;;;0.40;;
20802;SDS011;10562;-33.856;151.182;2022-08-16T01:36:45;2.20;;;0.43;;
20802;SDS011;10562;-33.856;151.182;2022-08-16T01:39:18;0.73;;;0.50;;
20802;SDS011;10562;-33.856;151.182;2022-08-16T01:41:49;1.95;;;0.47;;
20802;SDS011;10562;-33.856;151.182;2022-08-16T01:44:20;0.98;;;0.40;;
20802;SDS011;10562;-33.856;151.182;2022-08-16T01:46:51;4.60;;;0.90;;
20802;SDS011;10562;-33.856;151.182;2022-08-16T01:49:23;1.40;;;0.60;;
20802;SDS011;10562;-33.856;151.182;2022-08-16T01:51:58;0.70;;;0.30;;
20802;SDS011;10562;-33.856;151.182;2022-08-16T01:54:33;2.63;;;0.47;;
20802;SDS011;10562;-33.856;151.182;2022-08-16T01:57:05;1.02;;;0.50;;
20802;SDS011;10562;-33.856;151.182;2022-08-16T01:59:37;1.75;;;0.55;;
20802;SDS011;10562;-33.856;151.182;2022-08-16T02:02:08;1.08;;;0.57;;
20802;SDS011;10562;-33.856;151.182;2022-08-16T02:04:39;0.90;;;0.60;;
20802;SDS011;10562;-33.856;151.182;2022-08-16T02:07:11;0.82;;;0.52;;
20802;SDS011;10562;-33.856;151.182;2022-08-16T02:09:45;0.50;;;0.47;;
20802;SDS011;10562;-33.856;151.182;2022-08-16T02:12:17;0.60;;;0.40;;
20802;SDS011;10562;-33.856;151.182;2022-08-16T02:14:49;1.58;;;0.50;;
20802;SDS011;10562;-33.856;151.182;2022-08-16T02:17:20;0.90;;;0.40;;
20802;SDS011;10562;-33.856;151.182;2022-08-16T02:19:51;2.58;;;0.40;;
20802;SDS011;10562;-33.856;151.182;2022-08-16T02:22:22;1.75;;;0.50;;
20802;SDS011;10562;-33.856;151.182;2022-08-16T02:24:57;0.95;;;0.50;;
20802;SDS011;10562;-33.856;151.182;2022-08-16T02:27:32;1.52;;;0.60;;
20802;SDS011;10562;-33.856;151.182;2022-08-16T02:30:05;0.40;;;0.40;;
20802;SDS011;10562;-33.856;151.182;2022-08-16T02:32:39;0.60;;;0.40;;
20802;SDS011;10562;-33.856;151.182;2022-08-16T02:35:10;1.35;;;0.55;;
20802;SDS011;10562;-33.856;151.182;2022-08-16T02:37:41;1.50;;;0.30;;
20802;SDS011;10562;-33.856;151.182;2022-08-16T02:40:14;2.13;;;0.40;;
20802;SDS011;10562;-33.856;151.182;2022-08-16T02:42:47;1.08;;;0.45;;
20802;SDS011;10562;-33.856;151.182;2022-08-16T02:45:19;0.65;;;0.38;;
20802;SDS011;10562;-33.856;151.182;2022-08-16T02:47:53;0.93;;;0.30;;
20802;SDS011;10562;-33.856;151.182;2022-08-16T02:50:24;0.90;;;0.30;;
20802;SDS011;10562;-33.856;151.182;2022-08-16T02:52:55;0.70;;;0.35;;
20802;SDS011;10562;-33.856;151.182;2022-08-16T02:55:28;1.10;;;0.40;;
20802;SDS011;10562;-33.856;151.182;2022-08-16T02:57:59;1.58;;;0.40;;
20802;SDS011;10562;-33.856;151.182;2022-08-16T03:00:30;0.75;;;0.30;;
20802;SDS011;10562;-33.856;151.182;2022-08-16T03:03:04;0.20;;;0.20;;
20802;SDS011;10562;-33.856;151.182;2022-08-16T03:05:36;0.30;;;0.20;;
20802;SDS011;10562;-33.856;151.182;2022-08-16T03:08:07;0.70;;;0.30;;
20802;SDS011;10562;-33.856;151.182;2022-08-16T03:10:40;1.05;;;0.60;;
20802;SDS011;10562;-33.856;151.182;2022-08-16T03:13:11;1.85;;;0.45;;
20802;SDS011;10562;-33.856;151.182;2022-08-16T03:15:42;0.77;;;0.38;;
20802;SDS011;10562;-33.856;151.182;2022-08-16T03:18:13;1.00;;;0.40;;
20802;SDS011;10562;-33.856;151.182;2022-08-16T03:20:44;0.90;;;0.40;;
20802;SDS011;10562;-33.856;151.182;2022-08-16T03:23:15;3.17;;;0.50;;
20802;SDS011;10562;-33.856;151.182;2022-08-16T03:25:53;2.28;;;0.60;;
20802;SDS011;10562;-33.856;151.182;2022-08-16T03:28:36;2.13;;;0.40;;
20802;SDS011;10562;-33.856;151.182;2022-08-16T03:31:07;1.23;;;0.47;;
20802;SDS011;10562;-33.856;151.182;2022-08-16T03:33:38;1.33;;;0.50;;
20802;SDS011;10562;-33.856;151.182;2022-08-16T03:36:09;0.88;;;0.30;;
20802;SDS011;10562;-33.856;151.182;2022-08-16T03:38:40;1.42;;;0.40;;
20802;SDS011;10562;-33.856;151.182;2022-08-16T03:41:13;2.28;;;0.60;;
20802;SDS011;10562;-33.856;151.182;2022-08-16T03:43:45;2.60;;;0.50;;
20802;SDS011;10562;-33.856;151.182;2022-08-16T03:46:16;1.67;;;0.60;;
20802;SDS011;10562;-33.856;151.182;2022-08-16T03:48:47;0.80;;;0.50;;
20802;SDS011;10562;-33.856;151.182;2022-08-16T03:51:20;1.13;;;0.40;;
20802;SDS011;10562;-33.856;151.182;2022-08-16T03:53:51;0.98;;;0.60;;
20802;SDS011;10562;-33.856;151.182;2022-08-16T03:56:25;3.13;;;0.80;;
20802;SDS011;10562;-33.856;151.182;2022-08-16T03:58:56;0.93;;;0.50;;
20802;SDS011;10562;-33.856;151.182;2022-08-16T04:01:27;3.05;;;0.57;;
20802;SDS011;10562;-33.856;151.182;2022-08-16T04:03:58;1.52;;;0.60;;
20802;SDS011;10562;-33.856;151.182;2022-08-16T04:06:29;1.42;;;0.60;;
20802;SDS011;10562;-33.856;151.182;2022-08-16T04:09:00;0.77;;;0.40;;
20802;SDS011;10562;-33.856;151.182;2022-08-16T04:11:33;2.28;;;0.30;;
20802;SDS011;10562;-33.856;151.182;2022-08-16T04:14:05;2.45;;;0.57;;
20802;SDS011;10562;-33.856;151.182;2022-08-16T04:16:37;0.70;;;0.40;;
20802;SDS011;10562;-33.856;151.182;2022-08-16T04:19:10;1.15;;;0.40;;
20802;SDS011;10562;-33.856;151.182;2022-08-16T04:21:45;1.98;;;0.70;;
20802;SDS011;10562;-33.856;151.182;2022-08-16T04:24:17;1.65;;;0.40;;
20802;SDS011;10562;-33.856;151.182;2022-08-16T04:26:50;1.10;;;0.40;;
20802;SDS011;10562;-33.856;151.182;2022-08-16T04:29:21;0.80;;;0.30;;
20802;SDS011;10562;-33.856;151.182;2022-08-16T04:31:53;0.93;;;0.30;;
20802;SDS011;10562;-33.856;151.182;2022-08-16T04:34:24;0.60;;;0.30;;
20802;SDS011;10562;-33.856;151.182;2022-08-16T04:36:56;0.73;;;0.38;;
20802;SDS011;10562;-33.856;151.182;2022-08-16T04:39:28;2.40;;;0.30;;
20802;SDS011;10562;-33.856;151.182;2022-08-16T04:42:02;1.10;;;0.40;;
20802;SDS011;10562;-33.856;151.182;2022-08-16T04:44:33;2.25;;;0.40;;
20802;SDS011;10562;-33.856;151.182;2022-08-16T04:47:04;0.75;;;0.32;;
20802;SDS011;10562;-33.856;151.182;2022-08-16T04:49:35;0.47;;;0.30;;
20802;SDS011;10562;-33.856;151.182;2022-08-16T04:52:06;0.70;;;0.30;;
20802;SDS011;10562;-33.856;151.182;2022-08-16T04:54:37;1.60;;;0.40;;
20802;SDS011;10562;-33.856;151.182;2022-08-16T04:57:11;1.20;;;0.40;;
20802;SDS011;10562;-33.856;151.182;2022-08-16T04:59:42;1.17;;;0.47;;
20802;SDS011;10562;-33.856;151.182;2022-08-16T05:02:13;1.05;;;0.35;;
20802;SDS011;10562;-33.856;151.182;2022-08-16T05:04:44;3.15;;;0.50;;
20802;SDS011;10562;-33.856;151.182;2022-08-16T05:07:14;1.15;;;0.50;;
20802;SDS011;10562;-33.856;151.182;2022-08-16T05:09:45;1.25;;;0.40;;
20802;SDS011;10562;-33.856;151.182;2022-08-16T05:12:18;1.63;;;0.47;;
20802;SDS011;10562;-33.856;151.182;2022-08-16T05:14:49;2.13;;;0.30;;
20802;SDS011;10562;-33.856;151.182;2022-08-16T05:17:20;1.33;;;0.50;;
20802;SDS011;10562;-33.856;151.182;2022-08-16T05:19:51;2.10;;;0.30;;
20802;SDS011;10562;-33.856;151.182;2022-08-16T05:22:23;0.63;;;0.30;;
20802;SDS011;10562;-33.856;151.182;2022-08-16T05:24:55;1.17;;;0.47;;
20802;SDS011;10562;-33.856;151.182;2022-08-16T05:27:28;0.30;;;0.30;;
20802;SDS011;10562;-33.856;151.182;2022-08-16T05:29:59;1.50;;;0.47;;
20802;SDS011;10562;-33.856;151.182;2022-08-16T05:32:30;1.25;;;0.50;;
20802;SDS011;10562;-33.856;151.182;2022-08-16T05:35:01;3.30;;;0.52;;
20802;SDS011;10562;-33.856;151.182;2022-08-16T05:37:33;3.17;;;0.57;;
20802;SDS011;10562;-33.856;151.182;2022-08-16T05:40:05;0.50;;;0.40;;
20802;SDS011;10562;-33.856;151.182;2022-08-16T05:42:39;3.10;;;0.63;;
20802;SDS011;10562;-33.856;151.182;2022-08-16T05:45:10;0.95;;;0.60;;
20802;SDS011;10562;-33.856;151.182;2022-08-16T05:47:42;3.13;;;0.65;;
20802;SDS011;10562;-33.856;151.182;2022-08-16T05:50:13;1.83;;;0.80;;
20802;SDS011;10562;-33.856;151.182;2022-08-16T05:52:45;1.30;;;0.50;;
20802;SDS011;10562;-33.856;151.182;2022-08-16T05:55:17;2.38;;;0.55;;
20802;SDS011;10562;-33.856;151.182;2022-08-16T05:57:52;0.95;;;0.45;;
20802;SDS011;10562;-33.856;151.182;2022-08-16T06:00:24;1.38;;;0.40;;
20802;SDS011;10562;-33.856;151.182;2022-08-16T06:02:56;2.80;;;0.40;;
20802;SDS011;10562;-33.856;151.182;2022-08-16T06:05:27;0.88;;;0.40;;
20802;SDS011;10562;-33.856;151.182;2022-08-16T06:07:58;1.17;;;0.50;;
20802;SDS011;10562;-33.856;151.182;2022-08-16T06:10:29;0.98;;;0.50;;
20802;SDS011;10562;-33.856;151.182;2022-08-16T06:13:02;2.00;;;0.40;;
20802;SDS011;10562;-33.856;151.182;2022-08-16T06:15:33;0.43;;;0.40;;
20802;SDS011;10562;-33.856;151.182;2022-08-16T06:18:04;3.15;;;0.60;;
20802;SDS011;10562;-33.856;151.182;2022-08-16T06:20:35;1.10;;;0.57;;
20802;SDS011;10562;-33.856;151.182;2022-08-16T06:23:06;3.67;;;0.70;;
20802;SDS011;10562;-33.856;151.182;2022-08-16T06:25:37;0.77;;;0.35;;
20802;SDS011;10562;-33.856;151.182;2022-08-16T06:28:10;1.58;;;0.65;;
20802;SDS011;10562;-33.856;151.182;2022-08-16T06:30:41;0.75;;;0.50;;
20802;SDS011;10562;-33.856;151.182;2022-08-16T06:33:13;0.98;;;0.40;;
20802;SDS011;10562;-33.856;151.182;2022-08-16T06:35:45;2.38;;;0.50;;
20802;SDS011;10562;-33.856;151.182;2022-08-16T06:38:16;2.90;;;0.70;;
20802;SDS011;10562;-33.856;151.182;2022-08-16T06:40:47;0.55;;;0.50;;
20802;SDS011;10562;-33.856;151.182;2022-08-16T06:43:20;3.65;;;0.88;;
20802;SDS011;10562;-33.856;151.182;2022-08-16T06:45:51;1.23;;;0.70;;
20802;SDS011;10562;-33.856;151.182;2022-08-16T06:48:22;3.38;;;0.90;;
20802;SDS011;10562;-33.856;151.182;2022-08-16T06:50:53;2.20;;;0.90;;
20802;SDS011;10562;-33.856;151.182;2022-08-16T06:53:24;2.42;;;0.60;;
20802;SDS011;10562;-33.856;151.182;2022-08-16T06:55:59;3.20;;;0.77;;
20802;SDS011;10562;-33.856;151.182;2022-08-16T06:58:33;2.78;;;0.70;;
20802;SDS011;10562;-33.856;151.182;2022-08-16T07:01:05;3.53;;;0.85;;
20802;SDS011;10562;-33.856;151.182;2022-08-16T07:03:36;4.55;;;0.85;;
20802;SDS011;10562;-33.856;151.182;2022-08-16T07:06:07;1.60;;;0.70;;
20802;SDS011;10562;-33.856;151.182;2022-08-16T07:08:38;3.33;;;0.80;;
20802;SDS011;10562;-33.856;151.182;2022-08-16T07:11:09;7.47;;;1.10;;
20802;SDS011;10562;-33.856;151.182;2022-08-16T07:13:42;2.53;;;1.05;;
20802;SDS011;10562;-33.856;151.182;2022-08-16T07:16:14;3.20;;;1.45;;
20802;SDS011;10562;-33.856;151.182;2022-08-16T07:18:46;10.48;;;2.08;;
20802;SDS011;10562;-33.856;151.182;2022-08-16T07:21:17;3.42;;;1.10;;
20802;SDS011;10562;-33.856;151.182;2022-08-16T07:23:48;3.88;;;1.33;;
20802;SDS011;10562;-33.856;151.182;2022-08-16T07:26:20;4.97;;;1.23;;
20802;SDS011;10562;-33.856;151.182;2022-08-16T07:28:55;2.75;;;1.30;;
20802;SDS011;10562;-33.856;151.182;2022-08-16T07:31:25;3.13;;;1.35;;
20802;SDS011;10562;-33.856;151.182;2022-08-16T07:33:56;3.03;;;1.00;;
20802;SDS011;10562;-33.856;151.182;2022-08-16T07:36:27;1.80;;;0.90;;
20802;SDS011;10562;-33.856;151.182;2022-08-16T07:38:58;6.60;;;1.13;;
20802;SDS011;10562;-33.856;151.182;2022-08-16T07:41:29;3.53;;;1.40;;
20802;SDS011;10562;-33.856;151.182;2022-08-16T07:44:02;7.00;;;1.13;;
20802;SDS011;10562;-33.856;151.182;2022-08-16T07:46:34;6.47;;;1.05;;
20802;SDS011;10562;-33.856;151.182;2022-08-16T07:49:05;2.45;;;1.00;;
20802;SDS011;10562;-33.856;151.182;2022-08-16T07:51:38;4.13;;;1.10;;
20802;SDS011;10562;-33.856;151.182;2022-08-16T07:54:09;3.42;;;0.88;;
20802;SDS011;10562;-33.856;151.182;2022-08-16T07:56:40;5.63;;;1.35;;
20802;SDS011;10562;-33.856;151.182;2022-08-16T07:59:13;2.72;;;1.20;;
20802;SDS011;10562;-33.856;151.182;2022-08-16T08:01:44;4.43;;;1.42;;
20802;SDS011;10562;-33.856;151.182;2022-08-16T08:04:17;2.85;;;1.40;;
20802;SDS011;10562;-33.856;151.182;2022-08-16T08:06:48;4.85;;;1.38;;
20802;SDS011;10562;-33.856;151.182;2022-08-16T08:09:20;5.13;;;1.23;;
20802;SDS011;10562;-33.856;151.182;2022-08-16T08:11:50;4.35;;;1.30;;
20802;SDS011;10562;-33.856;151.182;2022-08-16T08:14:23;3.35;;;1.20;;
20802;SDS011;10562;-33.856;151.182;2022-08-16T08:16:54;2.55;;;1.20;;
20802;SDS011;10562;-33.856;151.182;2022-08-16T08:19:26;5.93;;;1.77;;
20802;SDS011;10562;-33.856;151.182;2022-08-16T08:21:57;8.35;;;2.17;;
20802;SDS011;10562;-33.856;151.182;2022-08-16T08:24:28;7.28;;;2.05;;
20802;SDS011;10562;-33.856;151.182;2022-08-16T08:27:03;4.35;;;1.80;;
20802;SDS011;10562;-33.856;151.182;2022-08-16T08:29:37;6.57;;;1.83;;
20802;SDS011;10562;-33.856;151.182;2022-08-16T08:32:08;6.07;;;2.22;;
20802;SDS011;10562;-33.856;151.182;2022-08-16T08:34:39;5.65;;;2.08;;
20802;SDS011;10562;-33.856;151.182;2022-08-16T08:37:10;5.93;;;2.20;;
20802;SDS011;10562;-33.856;151.182;2022-08-16T08:39:41;10.35;;;2.88;;
20802;SDS011;10562;-33.856;151.182;2022-08-16T08:42:12;9.18;;;2.05;;
20802;SDS011;10562;-33.856;151.182;2022-08-16T08:44:45;6.15;;;1.35;;
20802;SDS011;10562;-33.856;151.182;2022-08-16T08:47:16;4.25;;;1.70;;
20802;SDS011;10562;-33.856;151.182;2022-08-16T08:49:47;7.88;;;2.53;;
20802;SDS011;10562;-33.856;151.182;2022-08-16T08:52:18;9.75;;;2.88;;
20802;SDS011;10562;-33.856;151.182;2022-08-16T08:54:49;9.48;;;2.58;;
20802;SDS011;10562;-33.856;151.182;2022-08-16T08:57:20;6.10;;;2.33;;
20802;SDS011;10562;-33.856;151.182;2022-08-16T08:59:57;6.20;;;2.15;;
20802;SDS011;10562;-33.856;151.182;2022-08-16T09:02:29;4.93;;;2.10;;
20802;SDS011;10562;-33.856;151.182;2022-08-16T09:05:00;6.68;;;2.45;;
20802;SDS011;10562;-33.856;151.182;2022-08-16T09:07:31;10.05;;;2.50;;
20802;SDS011;10562;-33.856;151.182;2022-08-16T09:10:03;7.85;;;2.80;;
20802;SDS011;10562;-33.856;151.182;2022-08-16T09:12:35;7.03;;;2.30;;
20802;SDS011;10562;-33.856;151.182;2022-08-16T09:15:09;6.82;;;2.40;;
20802;SDS011;10562;-33.856;151.182;2022-08-16T09:17:41;9.20;;;3.30;;
20802;SDS011;10562;-33.856;151.182;2022-08-16T09:20:12;5.43;;;2.50;;
20802;SDS011;10562;-33.856;151.182;2022-08-16T09:22:44;5.25;;;2.10;;
20802;SDS011;10562;-33.856;151.182;2022-08-16T09:25:15;6.43;;;2.42;;
20802;SDS011;10562;-33.856;151.182;2022-08-16T09:27:46;5.45;;;2.22;;
20802;SDS011;10562;-33.856;151.182;2022-08-16T09:30:19;7.13;;;2.38;;
20802;SDS011;10562;-33.856;151.182;2022-08-16T09:32:50;6.47;;;2.38;;
20802;SDS011;10562;-33.856;151.182;2022-08-16T09:35:22;6.43;;;2.70;;
20802;SDS011;10562;-33.856;151.182;2022-08-16T09:37:53;4.88;;;1.80;;
20802;SDS011;10562;-33.856;151.182;2022-08-16T09:40:24;4.60;;;1.95;;
20802;SDS011;10562;-33.856;151.182;2022-08-16T09:42:56;4.10;;;2.10;;
20802;SDS011;10562;-33.856;151.182;2022-08-16T09:45:29;5.95;;;2.28;;
20802;SDS011;10562;-33.856;151.182;2022-08-16T09:48:04;5.15;;;2.20;;
20802;SDS011;10562;-33.856;151.182;2022-08-16T09:50:36;5.32;;;2.20;;
20802;SDS011;10562;-33.856;151.182;2022-08-16T09:53:09;3.95;;;1.90;;
20802;SDS011;10562;-33.856;151.182;2022-08-16T09:55:42;5.95;;;2.17;;
20802;SDS011;10562;-33.856;151.182;2022-08-16T09:58:14;8.68;;;2.40;;
20802;SDS011;10562;-33.856;151.182;2022-08-16T10:00:47;8.07;;;2.67;;
20802;SDS011;10562;-33.856;151.182;2022-08-16T10:03:18;5.53;;;2.30;;
20802;SDS011;10562;-33.856;151.182;2022-08-16T10:05:50;6.57;;;2.38;;
20802;SDS011;10562;-33.856;151.182;2022-08-16T10:08:21;7.10;;;2.00;;
20802;SDS011;10562;-33.856;151.182;2022-08-16T10:10:52;6.28;;;1.90;;
20802;SDS011;10562;-33.856;151.182;2022-08-16T10:13:39;6.30;;;1.80;;
20802;SDS011;10562;-33.856;151.182;2022-08-16T10:16:15;4.18;;;1.70;;
20802;SDS011;10562;-33.856;151.182;2022-08-16T10:18:46;5.18;;;1.80;;
20802;SDS011;10562;-33.856;151.182;2022-08-16T10:21:17;4.00;;;1.80;;
20802;SDS011;10562;-33.856;151.182;2022-08-16T10:23:48;3.95;;;1.70;;
20802;SDS011;10562;-33.856;151.182;2022-08-16T10:26:19;5.97;;;2.13;;
20802;SDS011;10562;-33.856;151.182;2022-08-16T10:28:51;4.18;;;2.15;;
20802;SDS011;10562;-33.856;151.182;2022-08-16T10:31:25;4.20;;;1.65;;
20802;SDS011;10562;-33.856;151.182;2022-08-16T10:33:56;5.07;;;1.70;;
20802;SDS011;10562;-33.856;151.182;2022-08-16T10:36:27;4.65;;;1.80;;
20802;SDS011;10562;-33.856;151.182;2022-08-16T10:38:58;3.33;;;1.50;;
20802;SDS011;10562;-33.856;151.182;2022-08-16T10:41:29;4.95;;;1.45;;
20802;SDS011;10562;-33.856;151.182;2022-08-16T10:44:00;3.53;;;1.50;;
20802;SDS011;10562;-33.856;151.182;2022-08-16T10:46:33;3.13;;;1.60;;
20802;SDS011;10562;-33.856;151.182;2022-08-16T10:49:05;2.30;;;1.35;;
20802;SDS011;10562;-33.856;151.182;2022-08-16T10:51:36;2.22;;;1.27;;
20802;SDS011;10562;-33.856;151.182;2022-08-16T10:54:07;2.88;;;1.50;;
20802;SDS011;10562;-33.856;151.182;2022-08-16T10:56:38;3.58;;;1.13;;
20802;SDS011;10562;-33.856;151.182;2022-08-16T10:59:09;2.17;;;1.10;;
20802;SDS011;10562;-33.856;151.182;2022-08-16T11:01:42;2.47;;;1.27;;
20802;SDS011;10562;-33.856;151.182;2022-08-16T11:04:13;3.80;;;1.17;;
20802;SDS011;10562;-33.856;151.182;2022-08-16T11:06:44;2.80;;;1.10;;
20802;SDS011;10562;-33.856;151.182;2022-08-16T11:09:15;2.30;;;1.35;;
20802;SDS011;10562;-33.856;151.182;2022-08-16T11:11:46;4.95;;;1.17;;
20802;SDS011;10562;-33.856;151.182;2022-08-16T11:14:17;3.85;;;1.00;;
20802;SDS011;10562;-33.856;151.182;2022-08-16T11:16:51;2.40;;;1.20;;
20802;SDS011;10562;-33.856;151.182;2022-08-16T11:19:22;3.05;;;1.10;;
20802;SDS011;10562;-33.856;151.182;2022-08-16T11:21:53;2.55;;;1.05;;
20802;SDS011;10562;-33.856;151.182;2022-08-16T11:24:24;2.28;;;1.17;;
20802;SDS011;10562;-33.856;151.182;2022-08-16T11:26:56;1.52;;;1.10;;
20802;SDS011;10562;-33.856;151.182;2022-08-16T11:29:27;1.92;;;1.17;;
20802;SDS011;10562;-33.856;151.182;2022-08-16T11:32:00;1.90;;;1.00;;
20802;SDS011;10562;-33.856;151.182;2022-08-16T11:34:32;2.63;;;1.10;;
20802;SDS011;10562;-33.856;151.182;2022-08-16T11:37:03;3.15;;;1.15;;
20802;SDS011;10562;-33.856;151.182;2022-08-16T11:39:34;2.00;;;1.10;;
20802;SDS011;10562;-33.856;151.182;2022-08-16T11:42:05;2.15;;;1.27;;
20802;SDS011;10562;-33.856;151.182;2022-08-16T11:44:36;2.10;;;1.05;;
20802;SDS011;10562;-33.856;151.182;2022-08-16T11:47:08;1.58;;;1.02;;
20802;SDS011;10562;-33.856;151.182;2022-08-16T11:49:39;1.35;;;1.00;;
20802;SDS011;10562;-33.856;151.182;2022-08-16T11:52:10;4.25;;;1.30;;
20802;SDS011;10562;-33.856;151.182;2022-08-16T11:54:42;3.20;;;1.42;;
20802;SDS011;10562;-33.856;151.182;2022-08-16T11:57:14;1.85;;;1.15;;
20802;SDS011;10562;-33.856;151.182;2022-08-16T11:59:45;1.98;;;1.25;;
20802;SDS011;10562;-33.856;151.182;2022-08-16T12:02:18;3.50;;;1.23;;
20802;SDS011;10562;-33.856;151.182;2022-08-16T12:04:48;2.95;;;1.10;;
20802;SDS011;10562;-33.856;151.182;2022-08-16T12:07:20;2.00;;;1.10;;
20802;SDS011;10562;-33.856;151.182;2022-08-16T12:09:51;2.83;;;1.20;;
20802;SDS011;10562;-33.856;151.182;2022-08-16T12:12:22;2.50;;;1.40;;
20802;SDS011;10562;-33.856;151.182;2022-08-16T12:14:54;2.97;;;1.20;;
20802;SDS011;10562;-33.856;151.182;2022-08-16T12:17:26;2.20;;;1.35;;
20802;SDS011;10562;-33.856;151.182;2022-08-16T12:19:58;2.53;;;1.40;;
20802;SDS011;10562;-33.856;151.182;2022-08-16T12:22:29;1.98;;;1.13;;
20802;SDS011;10562;-33.856;151.182;2022-08-16T12:25:00;2.83;;;1.20;;
20802;SDS011;10562;-33.856;151.182;2022-08-16T12:27:32;2.28;;;1.20;;
20802;SDS011;10562;-33.856;151.182;2022-08-16T12:30:03;3.38;;;1.42;;
20802;SDS011;10562;-33.856;151.182;2022-08-16T12:32:38;2.17;;;1.23;;
20802;SDS011;10562;-33.856;151.182;2022-08-16T12:35:10;2.40;;;1.27;;
20802;SDS011;10562;-33.856;151.182;2022-08-16T12:37:44;1.88;;;1.30;;
20802;SDS011;10562;-33.856;151.182;2022-08-16T12:40:17;2.15;;;1.00;;
20802;SDS011;10562;-33.856;151.182;2022-08-16T12:42:49;2.78;;;1.10;;
20802;SDS011;10562;-33.856;151.182;2022-08-16T12:45:21;2.20;;;1.13;;
20802;SDS011;10562;-33.856;151.182;2022-08-16T12:47:55;2.90;;;1.10;;
20802;SDS011;10562;-33.856;151.182;2022-08-16T12:50:42;2.80;;;1.20;;
20802;SDS011;10562;-33.856;151.182;2022-08-16T12:53:13;2.15;;;1.05;;
20802;SDS011;10562;-33.856;151.182;2022-08-16T12:55:45;2.42;;;1.10;;
20802;SDS011;10562;-33.856;151.182;2022-08-16T12:58:17;2.28;;;1.00;;
20802;SDS011;10562;-33.856;151.182;2022-08-16T13:00:48;1.85;;;1.00;;
20802;SDS011;10562;-33.856;151.182;2022-08-16T13:03:21;2.05;;;0.90;;
20802;SDS011;10562;-33.856;151.182;2022-08-16T13:05:53;2.03;;;0.90;;
20802;SDS011;10562;-33.856;151.182;2022-08-16T13:08:24;2.92;;;1.13;;
20802;SDS011;10562;-33.856;151.182;2022-08-16T13:10:55;1.33;;;0.80;;
20802;SDS011;10562;-33.856;151.182;2022-08-16T13:13:26;1.55;;;0.95;;
20802;SDS011;10562;-33.856;151.182;2022-08-16T13:16:00;1.55;;;1.00;;
20802;SDS011;10562;-33.856;151.182;2022-08-16T13:18:35;2.08;;;0.90;;
20802;SDS011;10562;-33.856;151.182;2022-08-16T13:21:06;1.92;;;0.93;;
20802;SDS011;10562;-33.856;151.182;2022-08-16T13:23:37;1.55;;;0.77;;
20802;SDS011;10562;-33.856;151.182;2022-08-16T13:26:08;2.08;;;0.90;;
20802;SDS011;10562;-33.856;151.182;2022-08-16T13:28:40;1.42;;;0.77;;
20802;SDS011;10562;-33.856;151.182;2022-08-16T13:31:10;1.83;;;0.80;;
20802;SDS011;10562;-33.856;151.182;2022-08-16T13:33:44;2.38;;;0.85;;
20802;SDS011;10562;-33.856;151.182;2022-08-16T13:36:15;1.40;;;0.80;;
20802;SDS011;10562;-33.856;151.182;2022-08-16T13:38:45;1.02;;;0.70;;
20802;SDS011;10562;-33.856;151.182;2022-08-16T13:41:16;1.92;;;0.90;;
20802;SDS011;10562;-33.856;151.182;2022-08-16T13:43:47;3.92;;;0.70;;
20802;SDS011;10562;-33.856;151.182;2022-08-16T13:46:18;1.20;;;0.90;;
20802;SDS011;10562;-33.856;151.182;2022-08-16T13:48:51;1.13;;;0.75;;
20802;SDS011;10562;-33.856;151.182;2022-08-16T13:51:22;2.53;;;0.75;;
20802;SDS011;10562;-33.856;151.182;2022-08-16T13:53:55;2.17;;;0.80;;
20802;SDS011;10562;-33.856;151.182;2022-08-16T13:56:29;1.80;;;1.00;;
20802;SDS011;10562;-33.856;151.182;2022-08-16T13:59:01;1.83;;;0.70;;
20802;SDS011;10562;-33.856;151.182;2022-08-16T14:01:33;1.85;;;0.80;;
20802;SDS011;10562;-33.856;151.182;2022-08-16T14:04:06;1.58;;;0.75;;
20802;SDS011;10562;-33.856;151.182;2022-08-16T14:06:37;1.05;;;0.70;;
20802;SDS011;10562;-33.856;151.182;2022-08-16T14:09:08;0.88;;;0.75;;
20802;SDS011;10562;-33.856;151.182;2022-08-16T14:11:39;1.42;;;0.85;;
20802;SDS011;10562;-33.856;151.182;2022-08-16T14:14:10;2.10;;;0.80;;
20802;SDS011;10562;-33.856;151.182;2022-08-16T14:16:41;1.92;;;0.70;;
20802;SDS011;10562;-33.856;151.182;2022-08-16T14:19:13;1.02;;;0.70;;
20802;SDS011;10562;-33.856;151.182;2022-08-16T14:21:45;1.67;;;0.70;;
20802;SDS011;10562;-33.856;151.182;2022-08-16T14:24:16;2.53;;;1.13;;
20802;SDS011;10562;-33.856;151.182;2022-08-16T14:26:47;1.95;;;0.77;;
20802;SDS011;10562;-33.856;151.182;2022-08-16T14:29:18;1.42;;;0.80;;
20802;SDS011;10562;-33.856;151.182;2022-08-16T14:31:49;2.85;;;0.90;;
20802;SDS011;10562;-33.856;151.182;2022-08-16T14:34:22;1.05;;;0.70;;
20802;SDS011;10562;-33.856;151.182;2022-08-16T14:36:53;1.25;;;0.63;;